createdAt,value
2022-08-09T00:04:35.152Z,8983.09863
2022-08-09T00:19:38.104Z,9202.44629
2022-08-09T00:34:46.284Z,9302.61035
2022-08-09T00:49:56.610Z,9170.74805
2022-08-09T01:04:59.308Z,7653.06738
2022-08-09T01:20:03.293Z,6869.50293
2022-08-09T01:35:07.072Z,7118.01172
2022-08-09T01:50:20.470Z,2564.96948
2022-08-09T02:05:37.893Z,2227.70703
2022-08-09T02:20:46.413Z,1811.83459
2022-08-09T02:36:02.785Z,1323.69153
2022-08-09T02:51:06.247Z,822.86957
2022-08-09T03:06:08.548Z,375.29953
2022-08-09T03:21:10.897Z,115.37925
2022-08-09T03:36:16.785Z,17.75065
2022-08-09T03:51:57.222Z,1.2679
2022-08-09T04:07:01.343Z,0
2022-08-09T04:22:04.893Z,0
2022-08-09T04:37:14.272Z,0
2022-08-09T04:52:26.190Z,0
2022-08-09T05:07:32.138Z,0
2022-08-09T05:23:50.989Z,0
2022-08-09T05:39:00.162Z,0
2022-08-09T05:54:02.619Z,0
2022-08-09T06:09:23.087Z,0
2022-08-09T06:24:56.495Z,0
2022-08-09T06:40:00.258Z,0
2022-08-09T06:55:10.280Z,0
2022-08-09T07:10:29.673Z,0
2022-08-09T07:25:42.676Z,0
2022-08-09T07:41:08.124Z,0
2022-08-09T07:56:26.765Z,0
2022-08-09T08:12:24.993Z,0
2022-08-09T08:27:40.562Z,0
2022-08-09T08:42:47.060Z,0
2022-08-09T08:57:57.213Z,0
2022-08-09T09:13:00.187Z,0
2022-08-09T09:28:11.796Z,0
2022-08-09T09:43:23.727Z,0
2022-08-09T09:58:26.539Z,0
2022-08-09T10:13:43.570Z,0
2022-08-09T10:28:49.030Z,0
2022-08-09T10:44:25.752Z,0
2022-08-09T10:59:31.362Z,0
2022-08-09T11:14:34.038Z,0
2022-08-09T11:30:04.640Z,0
2022-08-09T11:45:08.812Z,0
2022-08-09T12:00:16.289Z,3.80371
2022-08-09T12:15:22.360Z,31.6976
2022-08-09T12:30:52.921Z,177.50653
2022-08-09T12:46:00.597Z,523.64429
2022-08-09T13:01:02.968Z,1058.69971
2022-08-09T13:16:07.119Z,1834.65686
2022-08-09T13:32:13.376Z,3498.14648
2022-08-09T13:47:31.486Z,5283.35498
2022-08-09T14:03:03.092Z,7926.93457
2022-08-09T14:18:29.824Z,8667.39062
2022-08-09T14:33:38.089Z,9694.39258
2022-08-09T14:48:40.998Z,10488.10059
2022-08-09T15:03:47.852Z,10554.03125
2022-08-09T15:18:52.237Z,11057.38867
2022-08-09T15:34:18.401Z,11719.23535
2022-08-09T15:49:36.465Z,11748.39648
2022-08-09T16:04:39.501Z,12389.95605
2022-08-09T16:19:49.326Z,11838.41797
2022-08-09T16:35:06.715Z,11302.09473
2022-08-09T16:50:31.462Z,11560.74707
2022-08-09T17:06:07.818Z,10988.92188
2022-08-09T17:21:31.038Z,10495.70801
2022-08-09T17:36:33.281Z,10074.76367
2022-08-09T17:51:38.110Z,9989.81445
2022-08-09T18:06:49.960Z,9524.49316
2022-08-09T18:21:57.571Z,7834.37744
2022-08-09T18:37:03.675Z,7088.8501
2022-08-09T18:52:06.039Z,4788.87256
2022-08-09T19:07:12.484Z,4696.31592
2022-08-09T19:22:18.962Z,4256.35303
2022-08-09T19:37:23.198Z,3565.34546
2022-08-09T19:52:26.084Z,3262.31641
2022-08-09T20:07:33.774Z,4142.2417
2022-08-09T20:22:59.739Z,3106.36426
2022-08-09T20:38:23.423Z,3755.53101
2022-08-09T20:53:36.911Z,4729.28125
2022-08-09T21:08:40.665Z,5048.79297
2022-08-09T21:23:51.073Z,5446.91455
2022-08-09T21:38:57.259Z,5974.36279
2022-08-09T21:54:00.895Z,5415.21729
2022-08-09T22:09:03.188Z,3078.47046
2022-08-09T22:24:05.412Z,3055.64819
2022-08-09T22:39:08.108Z,2654.99048
2022-08-09T22:54:10.851Z,2796.99585
2022-08-09T23:09:13.313Z,3399.25
2022-08-09T23:24:15.790Z,3456.30566
2022-08-09T23:39:18.070Z,2898.42798
2022-08-09T23:54:20.349Z,1776.33325
